»·PEaware :: DAL2235 KSLC-KEGE

DAL2235 :: KSLC-KEGE

FLIGHT INFORMATION

Flight Status: Arrived
Operator:
Delta Air Lines
More flights by this operator :: More flights under this callsign
Pilot: Max W. (2591)
Aircraft: AIRBUS A320
(A320)
More flights by this aircraft type
Origin: KSLC Salt Lake City Intl
United States
Destination: KEGE Eagle Co Regl
United States
More flights between these airports :: More routes between these airports
Route: +NSIGN5 EKR RLG
File this flight plan on PilotEdge
Remarks:
Altitude:
(Current/Filed)
29,000ft
Speed:
(Current/Filed)
450kts
Departed: 04-Jan-18 09:17 PM
Arrived: 04-Jan-18 10:10 PM
Distance/Time
Traveled:
242nm/0:53
Distance/Time
To Go:
Arrived

Flight Plot

Page will automatically refresh every two minutes.

Flight plan parsing failed; only flown route is shown


Map Options




Map Legend


Flown Route
Filed Route
Departure Airport
Arrival Airport
Navaid (VOR, NDB)
Fix

Horizontal Profiles

Position Reports

Time Latitude Longitude Heading Altitude Ground
Speed
04-Jan-18 21:02 40.787746 -111.981025 282 4241ft 0kts
04-Jan-18 21:03 40.787746 -111.981025 282 4241ft 0kts
04-Jan-18 21:04 40.787746 -111.981025 282 4241ft 0kts
04-Jan-18 21:05 40.787746 -111.981025 282 4241ft 0kts
04-Jan-18 21:06 40.787746 -111.981025 282 4241ft 0kts
04-Jan-18 21:07 40.787746 -111.981025 282 4241ft 0kts
04-Jan-18 21:08 40.787746 -111.981025 282 4241ft 0kts
04-Jan-18 21:09 40.787746 -111.981025 282 4241ft 0kts
04-Jan-18 21:10 40.787746 -111.981025 282 4241ft 0kts
04-Jan-18 21:11 40.787646 -111.980427 282 4241ft 2kts
04-Jan-18 21:12 40.787614 -111.980232 282 4241ft 0kts
04-Jan-18 21:13 40.788413 -111.979968 7 4241ft 0kts
04-Jan-18 21:14 40.788413 -111.979968 7 4241ft 0kts
04-Jan-18 21:15 40.788631 -111.979920 6 4241ft 0kts
04-Jan-18 21:16 40.789149 -111.979880 356 4241ft 0kts
04-Jan-18 21:17 40.789351 -111.979898 356 4241ft 0kts
04-Jan-18 21:18 40.790352 -111.978416 85 4241ft 21kts
04-Jan-18 21:19 40.784988 -111.976572 174 4241ft 30kts
04-Jan-18 21:20 40.778883 -111.975472 166 4241ft 13kts
04-Jan-18 21:21 40.774572 -111.974803 133 4241ft 0kts
04-Jan-18 21:22 40.775188 -111.973140 354 4241ft 0kts
04-Jan-18 21:23 40.776032 -111.973250 354 4241ft 46kts
04-Jan-18 21:24 40.818546 -111.978443 353 6163ft 186kts
04-Jan-18 21:25 40.881422 -111.987094 353 8854ft 259kts
04-Jan-18 21:26 40.956156 -111.997144 351 11567ft 274kts
04-Jan-18 21:27 41.035033 -112.008601 350 13747ft 304kts
04-Jan-18 21:28 41.097517 -111.943273 84 16142ft 337kts
04-Jan-18 21:29 41.047307 -111.844898 145 18195ft 344kts
04-Jan-18 21:30 40.971354 -111.762409 142 20183ft 359kts
04-Jan-18 21:31 40.893671 -111.675849 143 21980ft 372kts
04-Jan-18 21:32 40.828168 -111.570335 106 23542ft 390kts
04-Jan-18 21:33 40.800185 -111.429449 106 25027ft 402kts
04-Jan-18 21:34 40.767291 -111.286813 106 26391ft 412kts
04-Jan-18 21:35 40.733276 -111.136269 106 26881ft 446kts
04-Jan-18 21:36 40.696057 -110.973822 106 27325ft 477kts
04-Jan-18 21:37 40.656434 -110.802121 106 27997ft 497kts
04-Jan-18 21:38 40.616355 -110.629281 105 29347ft 499kts
04-Jan-18 21:39 40.574724 -110.451620 105 29349ft 510kts
04-Jan-18 21:40 40.533529 -110.273416 103 29355ft 509kts
04-Jan-18 21:41 40.499560 -110.092438 101 29374ft 509kts
04-Jan-18 21:42 40.465223 -109.912040 102 29372ft 509kts
04-Jan-18 21:43 40.430795 -109.731964 102 29412ft 509kts
04-Jan-18 21:44 40.395772 -109.551600 102 29414ft 509kts
04-Jan-18 21:45 40.360667 -109.372183 102 29416ft 508kts
04-Jan-18 21:46 40.325203 -109.191757 102 29396ft 516kts
04-Jan-18 21:47 40.288862 -109.009175 102 29376ft 518kts
04-Jan-18 21:48 40.252370 -108.826822 103 29375ft 518kts
04-Jan-18 21:49 40.215505 -108.644412 102 29413ft 517kts
04-Jan-18 21:50 40.178293 -108.463091 102 29418ft 516kts
04-Jan-18 21:51 40.141040 -108.282058 103 29404ft 516kts
04-Jan-18 21:52 40.103490 -108.100610 103 29390ft 515kts
04-Jan-18 21:53 40.067555 -107.924739 96 26937ft 496kts
04-Jan-18 21:54 40.060280 -107.747945 90 24456ft 481kts
04-Jan-18 21:55 40.053098 -107.574235 90 24352ft 480kts
04-Jan-18 21:56 40.046129 -107.400695 90 24366ft 479kts
04-Jan-18 21:57 40.038892 -107.234729 90 24377ft 409kts
04-Jan-18 21:58 40.032968 -107.096767 90 24379ft 352kts
04-Jan-18 21:59 40.027517 -106.975400 90 23280ft 324kts
04-Jan-18 22:00 40.022328 -106.861399 90 21846ft 297kts
04-Jan-18 22:01 40.017591 -106.758029 91 20319ft 283kts
04-Jan-18 22:02 40.012785 -106.657171 91 18733ft 274kts
04-Jan-18 22:03 40.003114 -106.560514 114 17081ft 268kts
04-Jan-18 22:04 39.970597 -106.476427 99 15401ft 261kts
04-Jan-18 22:05 39.946602 -106.391928 148 14027ft 251kts
04-Jan-18 22:06 39.890751 -106.411432 243 13991ft 217kts
04-Jan-18 22:07 39.861931 -106.477816 243 13993ft 210kts
04-Jan-18 22:08 39.832531 -106.543877 243 13990ft 210kts
04-Jan-18 22:09 39.797730 -106.604599 208 13872ft 221kts
04-Jan-18 22:10 39.738530 -106.626709 202 12726ft 219kts
04-Jan-18 22:11 39.689164 -106.663499 248 11688ft 201kts
04-Jan-18 22:12 39.670741 -106.729367 249 11013ft 177kts
04-Jan-18 22:13 39.659497 -106.789078 261 9799ft 163kts
04-Jan-18 22:14 39.650562 -106.848756 256 8082ft 176kts
04-Jan-18 22:15 39.643758 -106.906996 261 6541ft 147kts
04-Jan-18 22:16 39.640521 -106.927730 126 6529ft 14kts
04-Jan-18 22:17 39.641092 -106.921098 80 6529ft 33kts
04-Jan-18 22:18 39.640577 -106.915451 172 6529ft 0kts
04-Jan-18 22:19 39.640577 -106.915451 172 6529ft 0kts
04-Jan-18 22:20 39.640577 -106.915451 172 6529ft 0kts
04-Jan-18 22:21 39.640577 -106.915451 172 6529ft 0kts
04-Jan-18 22:23 39.640577 -106.915451 172 6529ft 0kts
04-Jan-18 22:24 39.640577 -106.915451 172 6529ft 0kts
04-Jan-18 22:25 39.640577 -106.915451 172 6529ft 0kts
04-Jan-18 22:26 39.640577 -106.915451 172 6529ft 0kts
04-Jan-18 22:27 39.640577 -106.915451 172 6529ft 0kts
04-Jan-18 22:28 39.640577 -106.915451 172 6529ft 0kts

Navigation Log

Ident Type
Flight plan parsing failed, navigation log unavailable